sensor_id;sensor_type;location;lat;lon;timestamp;temperature;humidity
9448;DHT22;4762;48.128;11.376;2023-05-14T00:00:50;11.00;99.90
9448;DHT22;4762;48.128;11.376;2023-05-14T00:02:53;11.00;99.90
9448;DHT22;4762;48.128;11.376;2023-05-14T00:04:56;11.00;99.90
9448;DHT22;4762;48.128;11.376;2023-05-14T00:06:58;11.00;99.90
9448;DHT22;4762;48.128;11.376;2023-05-14T00:09:00;11.00;99.90
9448;DHT22;4762;48.128;11.376;2023-05-14T00:11:03;11.00;99.90
9448;DHT22;4762;48.128;11.376;2023-05-14T00:13:06;10.90;99.90
9448;DHT22;4762;48.128;11.376;2023-05-14T00:15:08;10.90;99.90
9448;DHT22;4762;48.128;11.376;2023-05-14T00:17:11;10.90;99.90
9448;DHT22;4762;48.128;11.376;2023-05-14T00:19:13;10.90;99.90
9448;DHT22;4762;48.128;11.376;2023-05-14T00:21:15;10.90;99.90
9448;DHT22;4762;48.128;11.376;2023-05-14T00:23:18;10.80;99.90
9448;DHT22;4762;48.128;11.376;2023-05-14T00:25:20;10.80;99.90
9448;DHT22;4762;48.128;11.376;2023-05-14T00:27:23;10.80;99.90
9448;DHT22;4762;48.128;11.376;2023-05-14T00:29:25;10.90;99.90
9448;DHT22;4762;48.128;11.376;2023-05-14T00:31:27;10.90;99.90
9448;DHT22;4762;48.128;11.376;2023-05-14T00:33:30;10.90;99.90
9448;DHT22;4762;48.128;11.376;2023-05-14T00:35:32;10.90;99.90
9448;DHT22;4762;48.128;11.376;2023-05-14T00:37:34;11.00;99.90
9448;DHT22;4762;48.128;11.376;2023-05-14T00:39:36;11.00;99.90
9448;DHT22;4762;48.128;11.376;2023-05-14T00:41:38;11.00;99.90
9448;DHT22;4762;48.128;11.376;2023-05-14T00:43:41;11.00;99.90
9448;DHT22;4762;48.128;11.376;2023-05-14T00:45:43;11.00;99.90
9448;DHT22;4762;48.128;11.376;2023-05-14T00:47:46;11.00;99.90
9448;DHT22;4762;48.128;11.376;2023-05-14T00:49:47;11.00;99.90
9448;DHT22;4762;48.128;11.376;2023-05-14T00:51:50;11.00;99.90
9448;DHT22;4762;48.128;11.376;2023-05-14T00:53:52;10.90;99.90
9448;DHT22;4762;48.128;11.376;2023-05-14T00:55:55;10.90;99.90
9448;DHT22;4762;48.128;11.376;2023-05-14T00:57:57;10.80;99.90
9448;DHT22;4762;48.128;11.376;2023-05-14T00:59:59;10.80;99.90
9448;DHT22;4762;48.128;11.376;2023-05-14T01:02:02;10.70;99.90
9448;DHT22;4762;48.128;11.376;2023-05-14T01:04:05;10.70;99.90
9448;DHT22;4762;48.128;11.376;2023-05-14T01:06:14;10.70;99.90
9448;DHT22;4762;48.128;11.376;2023-05-14T01:08:24;10.70;99.90
9448;DHT22;4762;48.128;11.376;2023-05-14T01:10:26;10.60;99.90
9448;DHT22;4762;48.128;11.376;2023-05-14T01:12:32;10.70;99.90
9448;DHT22;4762;48.128;11.376;2023-05-14T01:16:53;10.70;99.90
9448;DHT22;4762;48.128;11.376;2023-05-14T01:18:54;10.60;99.90
9448;DHT22;4762;48.128;11.376;2023-05-14T01:20:56;10.60;99.90
9448;DHT22;4762;48.128;11.376;2023-05-14T01:22:58;10.60;99.90
9448;DHT22;4762;48.128;11.376;2023-05-14T01:25:00;10.60;99.90
9448;DHT22;4762;48.128;11.376;2023-05-14T01:27:06;10.60;99.90
9448;DHT22;4762;48.128;11.376;2023-05-14T01:29:10;10.60;99.90
9448;DHT22;4762;48.128;11.376;2023-05-14T01:31:11;10.60;99.90
9448;DHT22;4762;48.128;11.376;2023-05-14T01:33:13;10.60;99.90
9448;DHT22;4762;48.128;11.376;2023-05-14T01:35:15;10.70;99.90
9448;DHT22;4762;48.128;11.376;2023-05-14T01:37:17;10.60;99.90
9448;DHT22;4762;48.128;11.376;2023-05-14T01:39:19;10.60;99.90
9448;DHT22;4762;48.128;11.376;2023-05-14T01:41:22;10.50;99.90
9448;DHT22;4762;48.128;11.376;2023-05-14T01:43:24;10.50;99.90
9448;DHT22;4762;48.128;11.376;2023-05-14T01:45:26;10.40;99.90
9448;DHT22;4762;48.128;11.376;2023-05-14T01:47:28;10.50;99.90
9448;DHT22;4762;48.128;11.376;2023-05-14T01:49:31;10.50;99.90
9448;DHT22;4762;48.128;11.376;2023-05-14T01:51:33;10.50;99.90
9448;DHT22;4762;48.128;11.376;2023-05-14T01:53:35;10.40;99.90
9448;DHT22;4762;48.128;11.376;2023-05-14T01:55:37;10.40;99.90
9448;DHT22;4762;48.128;11.376;2023-05-14T01:57:40;10.40;99.90
9448;DHT22;4762;48.128;11.376;2023-05-14T01:59:42;10.40;99.90
9448;DHT22;4762;48.128;11.376;2023-05-14T02:01:44;10.40;99.90
9448;DHT22;4762;48.128;11.376;2023-05-14T02:03:46;10.40;99.90
9448;DHT22;4762;48.128;11.376;2023-05-14T02:05:49;10.30;99.90
9448;DHT22;4762;48.128;11.376;2023-05-14T02:07:51;10.30;99.90
9448;DHT22;4762;48.128;11.376;2023-05-14T02:09:53;10.20;99.90
9448;DHT22;4762;48.128;11.376;2023-05-14T02:11:55;10.20;99.90
9448;DHT22;4762;48.128;11.376;2023-05-14T02:13:57;10.20;99.90
9448;DHT22;4762;48.128;11.376;2023-05-14T02:16:00;10.20;99.90
9448;DHT22;4762;48.128;11.376;2023-05-14T02:18:02;10.20;99.90
9448;DHT22;4762;48.128;11.376;2023-05-14T02:20:05;10.20;99.90
9448;DHT22;4762;48.128;11.376;2023-05-14T02:22:07;10.10;99.90
9448;DHT22;4762;48.128;11.376;2023-05-14T02:24:09;10.10;99.90
9448;DHT22;4762;48.128;11.376;2023-05-14T02:26:11;10.10;99.90
9448;DHT22;4762;48.128;11.376;2023-05-14T02:28:14;10.10;99.90
9448;DHT22;4762;48.128;11.376;2023-05-14T02:30:16;10.00;99.90
9448;DHT22;4762;48.128;11.376;2023-05-14T02:32:18;10.00;99.90
9448;DHT22;4762;48.128;11.376;2023-05-14T02:34:20;10.00;99.90
9448;DHT22;4762;48.128;11.376;2023-05-14T02:36:23;10.00;99.90
9448;DHT22;4762;48.128;11.376;2023-05-14T02:38:25;9.90;99.90
9448;DHT22;4762;48.128;11.376;2023-05-14T02:40:27;9.80;99.90
9448;DHT22;4762;48.128;11.376;2023-05-14T02:42:30;9.80;99.90
9448;DHT22;4762;48.128;11.376;2023-05-14T02:44:31;9.80;99.90
9448;DHT22;4762;48.128;11.376;2023-05-14T02:46:34;9.80;99.90
9448;DHT22;4762;48.128;11.376;2023-05-14T02:48:37;9.80;99.90
9448;DHT22;4762;48.128;11.376;2023-05-14T02:50:39;9.90;99.90
9448;DHT22;4762;48.128;11.376;2023-05-14T02:52:42;9.90;99.90
9448;DHT22;4762;48.128;11.376;2023-05-14T02:54:44;9.90;99.90
9448;DHT22;4762;48.128;11.376;2023-05-14T02:56:46;9.90;99.90
9448;DHT22;4762;48.128;11.376;2023-05-14T02:58:49;9.80;99.90
9448;DHT22;4762;48.128;11.376;2023-05-14T03:00:51;9.80;99.90
9448;DHT22;4762;48.128;11.376;2023-05-14T03:02:53;9.80;99.90
9448;DHT22;4762;48.128;11.376;2023-05-14T03:04:55;9.80;99.90
9448;DHT22;4762;48.128;11.376;2023-05-14T03:06:57;9.70;99.90
9448;DHT22;4762;48.128;11.376;2023-05-14T03:09:00;9.70;99.90
9448;DHT22;4762;48.128;11.376;2023-05-14T03:11:02;9.60;99.90
9448;DHT22;4762;48.128;11.376;2023-05-14T03:13:04;9.60;99.90
9448;DHT22;4762;48.128;11.376;2023-05-14T03:15:07;9.60;99.90
9448;DHT22;4762;48.128;11.376;2023-05-14T03:17:09;9.60;99.90
9448;DHT22;4762;48.128;11.376;2023-05-14T03:19:11;9.60;99.90
9448;DHT22;4762;48.128;11.376;2023-05-14T03:21:14;9.60;99.90
9448;DHT22;4762;48.128;11.376;2023-05-14T03:23:16;9.60;99.90
9448;DHT22;4762;48.128;11.376;2023-05-14T03:25:19;9.60;99.90
9448;DHT22;4762;48.128;11.376;2023-05-14T03:27:21;9.60;99.90
9448;DHT22;4762;48.128;11.376;2023-05-14T03:29:23;9.70;99.90
9448;DHT22;4762;48.128;11.376;2023-05-14T03:31:25;9.70;99.90
9448;DHT22;4762;48.128;11.376;2023-05-14T03:33:28;9.70;99.90
9448;DHT22;4762;48.128;11.376;2023-05-14T03:35:30;9.70;99.90
9448;DHT22;4762;48.128;11.376;2023-05-14T03:37:32;9.70;99.90
9448;DHT22;4762;48.128;11.376;2023-05-14T03:39:34;9.80;99.90
9448;DHT22;4762;48.128;11.376;2023-05-14T03:41:37;9.70;99.90
9448;DHT22;4762;48.128;11.376;2023-05-14T03:43:39;9.80;99.90
9448;DHT22;4762;48.128;11.376;2023-05-14T03:45:41;9.80;99.90
9448;DHT22;4762;48.128;11.376;2023-05-14T03:47:43;9.70;99.90
9448;DHT22;4762;48.128;11.376;2023-05-14T03:49:46;9.80;99.90
9448;DHT22;4762;48.128;11.376;2023-05-14T03:51:48;9.80;99.90
9448;DHT22;4762;48.128;11.376;2023-05-14T03:53:50;9.80;99.90
9448;DHT22;4762;48.128;11.376;2023-05-14T03:55:52;9.80;99.90
9448;DHT22;4762;48.128;11.376;2023-05-14T03:57:55;9.80;99.90
9448;DHT22;4762;48.128;11.376;2023-05-14T03:59:57;9.80;99.90
9448;DHT22;4762;48.128;11.376;2023-05-14T04:01:59;9.80;99.90
9448;DHT22;4762;48.128;11.376;2023-05-14T04:04:01;9.70;99.90
9448;DHT22;4762;48.128;11.376;2023-05-14T04:06:18;9.70;99.90
9448;DHT22;4762;48.128;11.376;2023-05-14T04:08:20;9.80;99.90
9448;DHT22;4762;48.128;11.376;2023-05-14T04:10:23;9.70;99.90
9448;DHT22;4762;48.128;11.376;2023-05-14T04:12:35;9.70;99.90
9448;DHT22;4762;48.128;11.376;2023-05-14T04:14:38;9.70;99.90
9448;DHT22;4762;48.128;11.376;2023-05-14T04:16:41;9.70;99.90
9448;DHT22;4762;48.128;11.376;2023-05-14T04:18:43;9.70;99.90
9448;DHT22;4762;48.128;11.376;2023-05-14T04:20:45;9.80;99.90
9448;DHT22;4762;48.128;11.376;2023-05-14T04:22:47;9.90;99.90
9448;DHT22;4762;48.128;11.376;2023-05-14T04:24:49;9.90;99.90
9448;DHT22;4762;48.128;11.376;2023-05-14T04:26:53;9.80;99.90
9448;DHT22;4762;48.128;11.376;2023-05-14T04:28:55;9.90;99.90
9448;DHT22;4762;48.128;11.376;2023-05-14T04:30:58;9.80;99.90
9448;DHT22;4762;48.128;11.376;2023-05-14T04:33:00;9.80;99.90
9448;DHT22;4762;48.128;11.376;2023-05-14T04:35:03;9.80;99.90
9448;DHT22;4762;48.128;11.376;2023-05-14T04:37:06;9.90;99.90
9448;DHT22;4762;48.128;11.376;2023-05-14T04:39:08;9.90;99.90
9448;DHT22;4762;48.128;11.376;2023-05-14T04:41:10;10.00;99.90
9448;DHT22;4762;48.128;11.376;2023-05-14T04:43:13;10.00;99.90
9448;DHT22;4762;48.128;11.376;2023-05-14T04:45:15;10.10;99.90
9448;DHT22;4762;48.128;11.376;2023-05-14T04:47:17;10.00;99.90
9448;DHT22;4762;48.128;11.376;2023-05-14T04:49:21;10.10;99.90
9448;DHT22;4762;48.128;11.376;2023-05-14T04:51:23;10.10;99.90
9448;DHT22;4762;48.128;11.376;2023-05-14T04:53:27;10.10;99.90
9448;DHT22;4762;48.128;11.376;2023-05-14T04:55:30;10.10;99.90
9448;DHT22;4762;48.128;11.376;2023-05-14T04:57:33;10.10;99.90
9448;DHT22;4762;48.128;11.376;2023-05-14T04:59:35;10.00;99.90
9448;DHT22;4762;48.128;11.376;2023-05-14T05:01:38;10.00;99.90
9448;DHT22;4762;48.128;11.376;2023-05-14T05:03:41;10.10;99.90
9448;DHT22;4762;48.128;11.376;2023-05-14T05:05:45;10.00;99.90
9448;DHT22;4762;48.128;11.376;2023-05-14T05:07:47;10.10;99.90
9448;DHT22;4762;48.128;11.376;2023-05-14T05:09:55;10.10;99.90
9448;DHT22;4762;48.128;11.376;2023-05-14T05:11:59;10.20;99.90
9448;DHT22;4762;48.128;11.376;2023-05-14T05:14:01;10.30;99.90
9448;DHT22;4762;48.128;11.376;2023-05-14T05:16:04;10.30;99.90
9448;DHT22;4762;48.128;11.376;2023-05-14T05:18:06;10.30;99.90
9448;DHT22;4762;48.128;11.376;2023-05-14T05:20:10;10.20;99.90
9448;DHT22;4762;48.128;11.376;2023-05-14T05:22:12;10.20;99.90
9448;DHT22;4762;48.128;11.376;2023-05-14T05:24:14;10.40;99.90
9448;DHT22;4762;48.128;11.376;2023-05-14T05:26:17;10.40;99.90
9448;DHT22;4762;48.128;11.376;2023-05-14T05:28:20;10.30;99.90
9448;DHT22;4762;48.128;11.376;2023-05-14T05:30:24;10.40;99.90
9448;DHT22;4762;48.128;11.376;2023-05-14T05:32:28;10.30;99.90
9448;DHT22;4762;48.128;11.376;2023-05-14T05:34:31;10.30;99.90
9448;DHT22;4762;48.128;11.376;2023-05-14T05:36:33;10.30;99.90
9448;DHT22;4762;48.128;11.376;2023-05-14T05:38:36;10.30;99.90
9448;DHT22;4762;48.128;11.376;2023-05-14T05:40:38;10.30;99.90
9448;DHT22;4762;48.128;11.376;2023-05-14T05:42:40;10.30;99.90
9448;DHT22;4762;48.128;11.376;2023-05-14T05:44:42;10.30;99.90
9448;DHT22;4762;48.128;11.376;2023-05-14T05:46:47;10.40;99.90
9448;DHT22;4762;48.128;11.376;2023-05-14T05:48:52;10.40;99.90
9448;DHT22;4762;48.128;11.376;2023-05-14T05:50:59;10.40;99.90
9448;DHT22;4762;48.128;11.376;2023-05-14T05:53:06;10.40;99.90
9448;DHT22;4762;48.128;11.376;2023-05-14T05:55:10;10.40;99.90
9448;DHT22;4762;48.128;11.376;2023-05-14T05:57:13;10.50;99.90
9448;DHT22;4762;48.128;11.376;2023-05-14T05:59:17;10.40;99.90
9448;DHT22;4762;48.128;11.376;2023-05-14T06:01:28;10.50;99.90
9448;DHT22;4762;48.128;11.376;2023-05-14T06:03:33;10.50;99.90
9448;DHT22;4762;48.128;11.376;2023-05-14T06:05:36;10.50;99.90
9448;DHT22;4762;48.128;11.376;2023-05-14T06:07:40;10.40;99.90
9448;DHT22;4762;48.128;11.376;2023-05-14T06:09:42;10.40;99.90
9448;DHT22;4762;48.128;11.376;2023-05-14T06:11:44;10.30;99.90
9448;DHT22;4762;48.128;11.376;2023-05-14T06:13:47;10.40;99.90
9448;DHT22;4762;48.128;11.376;2023-05-14T06:16:04;10.40;99.90
9448;DHT22;4762;48.128;11.376;2023-05-14T06:18:11;10.40;99.90
9448;DHT22;4762;48.128;11.376;2023-05-14T06:20:13;10.40;99.90
9448;DHT22;4762;48.128;11.376;2023-05-14T06:22:18;10.40;99.90
9448;DHT22;4762;48.128;11.376;2023-05-14T06:24:23;10.40;99.90
9448;DHT22;4762;48.128;11.376;2023-05-14T06:26:26;10.60;99.90
9448;DHT22;4762;48.128;11.376;2023-05-14T06:28:29;10.70;99.90
9448;DHT22;4762;48.128;11.376;2023-05-14T06:30:32;10.70;99.90
9448;DHT22;4762;48.128;11.376;2023-05-14T06:32:35;10.70;99.90
9448;DHT22;4762;48.128;11.376;2023-05-14T06:34:39;10.90;99.90
9448;DHT22;4762;48.128;11.376;2023-05-14T06:36:42;10.90;99.90
9448;DHT22;4762;48.128;11.376;2023-05-14T06:38:46;11.10;99.90
9448;DHT22;4762;48.128;11.376;2023-05-14T06:40:52;11.00;99.90
9448;DHT22;4762;48.128;11.376;2023-05-14T06:43:06;11.10;99.90
9448;DHT22;4762;48.128;11.376;2023-05-14T06:45:22;11.20;99.90
9448;DHT22;4762;48.128;11.376;2023-05-14T06:47:27;11.40;99.90
9448;DHT22;4762;48.128;11.376;2023-05-14T06:49:30;11.60;99.90
9448;DHT22;4762;48.128;11.376;2023-05-14T06:51:38;11.70;99.90
9448;DHT22;4762;48.128;11.376;2023-05-14T06:53:40;11.60;99.90
9448;DHT22;4762;48.128;11.376;2023-05-14T06:55:43;11.60;99.90
9448;DHT22;4762;48.128;11.376;2023-05-14T06:57:46;11.60;99.90
9448;DHT22;4762;48.128;11.376;2023-05-14T06:59:49;11.60;99.90
9448;DHT22;4762;48.128;11.376;2023-05-14T07:01:52;11.60;99.90
9448;DHT22;4762;48.128;11.376;2023-05-14T07:03:55;11.70;99.90
9448;DHT22;4762;48.128;11.376;2023-05-14T07:05:58;11.40;99.90
9448;DHT22;4762;48.128;11.376;2023-05-14T07:08:04;11.50;99.90
9448;DHT22;4762;48.128;11.376;2023-05-14T07:10:07;11.40;99.90
9448;DHT22;4762;48.128;11.376;2023-05-14T07:12:09;11.50;99.90
9448;DHT22;4762;48.128;11.376;2023-05-14T07:14:12;11.40;99.90
9448;DHT22;4762;48.128;11.376;2023-05-14T07:16:15;11.40;99.90
9448;DHT22;4762;48.128;11.376;2023-05-14T07:18:17;11.40;99.90
9448;DHT22;4762;48.128;11.376;2023-05-14T07:20:21;11.40;99.90
9448;DHT22;4762;48.128;11.376;2023-05-14T07:22:23;11.40;99.90
9448;DHT22;4762;48.128;11.376;2023-05-14T07:24:26;11.60;99.90
9448;DHT22;4762;48.128;11.376;2023-05-14T07:26:28;11.60;99.90
9448;DHT22;4762;48.128;11.376;2023-05-14T07:28:30;11.80;99.90
9448;DHT22;4762;48.128;11.376;2023-05-14T07:30:33;12.10;99.90
9448;DHT22;4762;48.128;11.376;2023-05-14T07:32:35;12.00;99.90
9448;DHT22;4762;48.128;11.376;2023-05-14T07:34:37;11.50;99.90
9448;DHT22;4762;48.128;11.376;2023-05-14T07:36:41;11.50;99.90
9448;DHT22;4762;48.128;11.376;2023-05-14T07:38:44;11.50;99.90
9448;DHT22;4762;48.128;11.376;2023-05-14T07:40:48;11.60;99.90
9448;DHT22;4762;48.128;11.376;2023-05-14T07:42:51;11.50;99.90
9448;DHT22;4762;48.128;11.376;2023-05-14T07:44:54;11.40;99.90
9448;DHT22;4762;48.128;11.376;2023-05-14T07:46:56;11.30;99.90
9448;DHT22;4762;48.128;11.376;2023-05-14T07:49:00;11.10;99.90
9448;DHT22;4762;48.128;11.376;2023-05-14T07:51:03;11.20;99.90
9448;DHT22;4762;48.128;11.376;2023-05-14T07:53:06;11.30;99.90
9448;DHT22;4762;48.128;11.376;2023-05-14T07:55:12;11.50;99.90
9448;DHT22;4762;48.128;11.376;2023-05-14T07:57:14;11.60;99.90
9448;DHT22;4762;48.128;11.376;2023-05-14T07:59:16;11.50;99.90
9448;DHT22;4762;48.128;11.376;2023-05-14T08:01:19;11.50;99.90
9448;DHT22;4762;48.128;11.376;2023-05-14T08:03:23;11.60;99.90
9448;DHT22;4762;48.128;11.376;2023-05-14T08:05:26;11.60;99.90
9448;DHT22;4762;48.128;11.376;2023-05-14T08:07:28;12.10;99.90
9448;DHT22;4762;48.128;11.376;2023-05-14T08:09:30;12.30;99.90
9448;DHT22;4762;48.128;11.376;2023-05-14T08:11:32;12.30;99.90
9448;DHT22;4762;48.128;11.376;2023-05-14T08:13:34;12.30;99.90
9448;DHT22;4762;48.128;11.376;2023-05-14T08:15:38;11.80;99.90
9448;DHT22;4762;48.128;11.376;2023-05-14T08:17:40;11.40;99.90
9448;DHT22;4762;48.128;11.376;2023-05-14T08:19:43;11.40;99.90
9448;DHT22;4762;48.128;11.376;2023-05-14T08:21:45;11.50;99.90
9448;DHT22;4762;48.128;11.376;2023-05-14T08:23:48;11.80;99.90
9448;DHT22;4762;48.128;11.376;2023-05-14T08:25:51;12.50;99.90
9448;DHT22;4762;48.128;11.376;2023-05-14T08:27:54;12.70;99.90
9448;DHT22;4762;48.128;11.376;2023-05-14T08:29:56;12.80;99.90
9448;DHT22;4762;48.128;11.376;2023-05-14T08:31:58;13.10;99.90
9448;DHT22;4762;48.128;11.376;2023-05-14T08:34:01;13.50;99.90
9448;DHT22;4762;48.128;11.376;2023-05-14T08:36:04;13.70;99.90
9448;DHT22;4762;48.128;11.376;2023-05-14T08:38:07;13.70;99.90
9448;DHT22;4762;48.128;11.376;2023-05-14T08:40:10;13.50;99.90
9448;DHT22;4762;48.128;11.376;2023-05-14T08:42:13;13.30;99.90
9448;DHT22;4762;48.128;11.376;2023-05-14T08:44:18;12.90;99.90
9448;DHT22;4762;48.128;11.376;2023-05-14T08:46:22;12.60;99.90
9448;DHT22;4762;48.128;11.376;2023-05-14T08:48:24;12.50;99.90
9448;DHT22;4762;48.128;11.376;2023-05-14T08:50:26;12.40;99.90
9448;DHT22;4762;48.128;11.376;2023-05-14T08:52:29;12.30;99.90
9448;DHT22;4762;48.128;11.376;2023-05-14T08:54:31;12.40;99.90
9448;DHT22;4762;48.128;11.376;2023-05-14T08:56:34;12.20;99.90
9448;DHT22;4762;48.128;11.376;2023-05-14T08:58:36;12.20;99.90
9448;DHT22;4762;48.128;11.376;2023-05-14T09:00:38;12.30;99.90
9448;DHT22;4762;48.128;11.376;2023-05-14T09:02:40;12.30;99.90
9448;DHT22;4762;48.128;11.376;2023-05-14T09:04:44;12.20;99.90
9448;DHT22;4762;48.128;11.376;2023-05-14T09:06:49;12.20;99.90
9448;DHT22;4762;48.128;11.376;2023-05-14T09:08:51;12.20;99.90
9448;DHT22;4762;48.128;11.376;2023-05-14T09:10:53;11.80;99.90
9448;DHT22;4762;48.128;11.376;2023-05-14T09:12:55;11.90;99.90
9448;DHT22;4762;48.128;11.376;2023-05-14T09:14:58;11.80;99.90
9448;DHT22;4762;48.128;11.376;2023-05-14T09:17:00;12.20;99.90
9448;DHT22;4762;48.128;11.376;2023-05-14T09:19:03;12.30;99.90
9448;DHT22;4762;48.128;11.376;2023-05-14T09:21:05;12.60;99.90
9448;DHT22;4762;48.128;11.376;2023-05-14T09:23:07;12.60;99.90
9448;DHT22;4762;48.128;11.376;2023-05-14T09:25:10;12.40;99.90
9448;DHT22;4762;48.128;11.376;2023-05-14T09:27:17;12.20;99.90
9448;DHT22;4762;48.128;11.376;2023-05-14T09:29:16;12.20;99.90
9448;DHT22;4762;48.128;11.376;2023-05-14T09:31:19;12.00;99.90
9448;DHT22;4762;48.128;11.376;2023-05-14T09:33:27;12.00;99.90
9448;DHT22;4762;48.128;11.376;2023-05-14T09:35:30;12.20;99.90
9448;DHT22;4762;48.128;11.376;2023-05-14T09:37:35;12.00;99.90
9448;DHT22;4762;48.128;11.376;2023-05-14T09:39:37;12.30;99.90
9448;DHT22;4762;48.128;11.376;2023-05-14T09:41:38;12.80;99.90
9448;DHT22;4762;48.128;11.376;2023-05-14T09:43:40;12.80;99.90
9448;DHT22;4762;48.128;11.376;2023-05-14T09:45:42;12.90;99.90
9448;DHT22;4762;48.128;11.376;2023-05-14T09:47:44;13.00;99.90
9448;DHT22;4762;48.128;11.376;2023-05-14T09:49:47;12.90;99.90
9448;DHT22;4762;48.128;11.376;2023-05-14T09:51:49;13.10;99.90
9448;DHT22;4762;48.128;11.376;2023-05-14T09:53:52;12.90;99.90
9448;DHT22;4762;48.128;11.376;2023-05-14T09:55:54;13.20;99.90
9448;DHT22;4762;48.128;11.376;2023-05-14T09:57:56;13.30;99.90
9448;DHT22;4762;48.128;11.376;2023-05-14T09:59:58;13.40;99.90
9448;DHT22;4762;48.128;11.376;2023-05-14T10:02:00;13.20;99.90
9448;DHT22;4762;48.128;11.376;2023-05-14T10:04:05;13.10;99.90
9448;DHT22;4762;48.128;11.376;2023-05-14T10:06:05;12.90;99.90
9448;DHT22;4762;48.128;11.376;2023-05-14T10:08:17;12.90;99.90
9448;DHT22;4762;48.128;11.376;2023-05-14T10:10:18;13.20;99.90
9448;DHT22;4762;48.128;11.376;2023-05-14T10:12:21;13.30;99.90
9448;DHT22;4762;48.128;11.376;2023-05-14T10:14:27;13.10;99.90
9448;DHT22;4762;48.128;11.376;2023-05-14T10:16:30;13.00;99.90
9448;DHT22;4762;48.128;11.376;2023-05-14T10:18:33;13.00;99.90
9448;DHT22;4762;48.128;11.376;2023-05-14T10:20:34;13.20;99.90
9448;DHT22;4762;48.128;11.376;2023-05-14T10:22:36;13.10;99.90
9448;DHT22;4762;48.128;11.376;2023-05-14T10:24:38;13.20;99.90
9448;DHT22;4762;48.128;11.376;2023-05-14T10:26:40;13.10;99.90
9448;DHT22;4762;48.128;11.376;2023-05-14T10:28:43;12.70;99.90
9448;DHT22;4762;48.128;11.376;2023-05-14T10:30:46;12.40;99.90
9448;DHT22;4762;48.128;11.376;2023-05-14T10:32:48;12.60;99.90
9448;DHT22;4762;48.128;11.376;2023-05-14T10:34:51;13.00;99.90
9448;DHT22;4762;48.128;11.376;2023-05-14T10:36:53;12.90;99.90
9448;DHT22;4762;48.128;11.376;2023-05-14T10:38:55;12.80;99.90
9448;DHT22;4762;48.128;11.376;2023-05-14T10:40:59;12.40;99.90
9448;DHT22;4762;48.128;11.376;2023-05-14T10:43:01;12.50;99.90
9448;DHT22;4762;48.128;11.376;2023-05-14T10:45:04;12.70;99.90
9448;DHT22;4762;48.128;11.376;2023-05-14T10:47:06;12.90;99.90
9448;DHT22;4762;48.128;11.376;2023-05-14T10:49:09;13.00;99.90
9448;DHT22;4762;48.128;11.376;2023-05-14T10:51:11;13.10;99.90
9448;DHT22;4762;48.128;11.376;2023-05-14T10:53:13;13.20;99.90
9448;DHT22;4762;48.128;11.376;2023-05-14T10:55:15;13.20;99.90
9448;DHT22;4762;48.128;11.376;2023-05-14T10:57:18;13.10;99.90
9448;DHT22;4762;48.128;11.376;2023-05-14T10:59:23;13.40;99.90
9448;DHT22;4762;48.128;11.376;2023-05-14T11:01:22;13.50;99.90
9448;DHT22;4762;48.128;11.376;2023-05-14T11:03:27;13.60;99.90
9448;DHT22;4762;48.128;11.376;2023-05-14T11:05:26;13.60;99.90
9448;DHT22;4762;48.128;11.376;2023-05-14T11:07:29;13.70;99.90
9448;DHT22;4762;48.128;11.376;2023-05-14T11:09:31;13.90;99.90
9448;DHT22;4762;48.128;11.376;2023-05-14T11:11:33;14.00;99.90
9448;DHT22;4762;48.128;11.376;2023-05-14T11:13:36;14.20;99.90
9448;DHT22;4762;48.128;11.376;2023-05-14T11:15:39;13.90;99.90
9448;DHT22;4762;48.128;11.376;2023-05-14T11:17:44;13.60;99.90
9448;DHT22;4762;48.128;11.376;2023-05-14T11:19:46;13.30;99.90
9448;DHT22;4762;48.128;11.376;2023-05-14T11:21:49;12.80;99.90
9448;DHT22;4762;48.128;11.376;2023-05-14T11:23:51;12.50;99.90
9448;DHT22;4762;48.128;11.376;2023-05-14T11:25:54;12.80;99.90
9448;DHT22;4762;48.128;11.376;2023-05-14T11:27:55;12.80;99.90
9448;DHT22;4762;48.128;11.376;2023-05-14T11:29:57;12.60;99.90
9448;DHT22;4762;48.128;11.376;2023-05-14T11:32:00;12.70;99.90
9448;DHT22;4762;48.128;11.376;2023-05-14T11:34:03;12.80;99.90
9448;DHT22;4762;48.128;11.376;2023-05-14T11:36:05;12.80;99.90
9448;DHT22;4762;48.128;11.376;2023-05-14T11:38:12;13.00;99.90
9448;DHT22;4762;48.128;11.376;2023-05-14T11:40:14;13.40;99.90
9448;DHT22;4762;48.128;11.376;2023-05-14T11:42:16;13.20;99.90
9448;DHT22;4762;48.128;11.376;2023-05-14T11:44:18;13.10;99.90
9448;DHT22;4762;48.128;11.376;2023-05-14T11:46:20;13.20;99.90
9448;DHT22;4762;48.128;11.376;2023-05-14T11:48:22;13.30;99.90
9448;DHT22;4762;48.128;11.376;2023-05-14T11:50:25;13.50;99.90
9448;DHT22;4762;48.128;11.376;2023-05-14T11:52:27;13.60;99.90
9448;DHT22;4762;48.128;11.376;2023-05-14T11:54:30;13.60;99.90
9448;DHT22;4762;48.128;11.376;2023-05-14T11:56:32;13.20;99.90
9448;DHT22;4762;48.128;11.376;2023-05-14T11:58:34;13.40;99.90
9448;DHT22;4762;48.128;11.376;2023-05-14T12:00:37;13.70;99.90
9448;DHT22;4762;48.128;11.376;2023-05-14T12:02:39;14.00;99.90
9448;DHT22;4762;48.128;11.376;2023-05-14T12:04:41;14.10;99.90
9448;DHT22;4762;48.128;11.376;2023-05-14T12:06:44;14.00;99.90
9448;DHT22;4762;48.128;11.376;2023-05-14T12:08:46;14.40;99.90
9448;DHT22;4762;48.128;11.376;2023-05-14T12:10:49;14.40;99.90
9448;DHT22;4762;48.128;11.376;2023-05-14T12:12:51;15.00;99.90
9448;DHT22;4762;48.128;11.376;2023-05-14T12:14:53;15.30;97.00
9448;DHT22;4762;48.128;11.376;2023-05-14T12:16:55;15.90;95.90
9448;DHT22;4762;48.128;11.376;2023-05-14T12:18:59;16.20;92.40
9448;DHT22;4762;48.128;11.376;2023-05-14T12:21:02;16.10;91.20
9448;DHT22;4762;48.128;11.376;2023-05-14T12:23:04;16.50;93.00
9448;DHT22;4762;48.128;11.376;2023-05-14T12:25:11;17.00;87.70
9448;DHT22;4762;48.128;11.376;2023-05-14T12:27:13;17.10;81.70
9448;DHT22;4762;48.128;11.376;2023-05-14T12:29:16;16.50;86.90
9448;DHT22;4762;48.128;11.376;2023-05-14T12:31:26;17.20;86.90
9448;DHT22;4762;48.128;11.376;2023-05-14T12:33:21;16.70;81.40
9448;DHT22;4762;48.128;11.376;2023-05-14T12:35:24;16.10;83.30
9448;DHT22;4762;48.128;11.376;2023-05-14T12:37:27;15.70;84.30
9448;DHT22;4762;48.128;11.376;2023-05-14T12:39:31;15.50;83.40
9448;DHT22;4762;48.128;11.376;2023-05-14T12:41:32;15.70;83.60
9448;DHT22;4762;48.128;11.376;2023-05-14T12:43:34;15.40;85.70
9448;DHT22;4762;48.128;11.376;2023-05-14T12:45:37;16.00;85.90
9448;DHT22;4762;48.128;11.376;2023-05-14T12:47:40;16.20;80.10
9448;DHT22;4762;48.128;11.376;2023-05-14T12:49:43;16.60;79.40
9448;DHT22;4762;48.128;11.376;2023-05-14T12:51:46;16.50;80.20
9448;DHT22;4762;48.128;11.376;2023-05-14T12:53:49;16.60;79.60
9448;DHT22;4762;48.128;11.376;2023-05-14T12:55:53;16.00;83.40
9448;DHT22;4762;48.128;11.376;2023-05-14T12:57:55;16.50;82.00
9448;DHT22;4762;48.128;11.376;2023-05-14T12:59:57;17.00;76.70
9448;DHT22;4762;48.128;11.376;2023-05-14T13:01:59;18.10;76.40
9448;DHT22;4762;48.128;11.376;2023-05-14T13:04:01;18.10;71.60
9448;DHT22;4762;48.128;11.376;2023-05-14T13:06:04;18.60;69.50
9448;DHT22;4762;48.128;11.376;2023-05-14T13:08:06;18.80;70.30
9448;DHT22;4762;48.128;11.376;2023-05-14T13:10:08;18.00;69.40
9448;DHT22;4762;48.128;11.376;2023-05-14T13:12:11;19.10;69.70